Quesnel Airport
CYQZ : now visible

Airfield :











YOU CAN JOIN US ON...

 
LOGIN :

Register | Disclaimer

   EN    FR    IT 

 









Legend :    VFR   Marginal VFR   IFR   Intensive IFR   Very Intensive IFR
Visi :
Ceiling :
>= 8 km
>= 3000ft
5 to 8 km
1000 to 3000 ft
1500m to 5 km
500 to 1000 ft
800 to 1500m
200 to 500 ft
< 800m
< 200 ft
Symbols :   Thunderstorms  Fog  Heavy snow  Heavy precipitations  Wind > 20 kt






- Airport Elevation : 1789 ft
- IATA code : YQZ


CYQZ - Quesnel

CURRENT METAR :
  • 291400Z AUTO 15006G15KT 090V190 9SM BKN095 OVC110 05/M02 A2967 RMK SLP073

EXPIRED METARs :
  • 291300Z AUTO 13009KT 090V150 9SM SCT150 OVC170 04/M02 A2968 RMK SLP074
  • 291200Z AUTO 12012G18KT 9SM FEW110 BKN160 OVC180 04/M02 A2970 RMK PRESFR SLP079

TAF TAF CYQZ
Valid from the 29 at 12:00 until the 30 at 00:00 UTC


291138Z 2912/2924 15010G20KT P6SM SCT060 BKN090
TEMPO 2912/2915 P6SM -RA OVC050
FM291500 15015G25KT P6SM SCT070 BKN120 RMK FCST BASED ON AUTO OBS. NXT FCST BY 291900Z



MET'MAP, your aeronautical weather chart ! - Copyright ORBIFLY December 2007 - Disclaimer

ORBIFLY MET'MAP TEAM :

Programming & Development : Alexandra Zaïnal
Concept & original design : Baudouin d'Aumeries
Assistance for programming : Marc-Olivier Méhu
Technical & hardware support : Manuel Goepfert

Contact : metmap@orbifly.com




SOURCES & CREDITS :

   NOAA       Earth
Advisory